Time;durP1;ratioP1;P1;durP2;ratioP2;P2;SDS_P1;SDS_P2;PMS_P1;PMS_P2;Temp;Humidity;BMP_temperature;BMP_pressure;BME280_temperature;BME280_humidity;BME280_pressure;Samples;Min_cycle;Max_cycle;Signal;HPM_P1;HPM_P2
2021/03/22 00:02:01;;;;;;;20.20;12.87;;;3.90;99.90;;;4.76;75.89;98159.59;5181759;28;20222;-58
2021/03/22 00:04:33;;;;;;;18.83;12.67;;;3.80;99.90;;;4.73;75.73;98159.34;5184883;28;20728;-60
2021/03/22 00:07:06;;;;;;;18.73;12.90;;;3.80;99.90;;;4.71;75.58;98160.84;5184303;28;20204;-60
2021/03/22 00:09:38;;;;;;;20.93;14.07;;;3.80;99.90;;;4.72;75.58;98160.06;5184147;28;20546;-60
2021/03/22 00:12:11;;;;;;;20.53;13.87;;;3.80;99.90;;;4.72;75.62;98167.66;5169270;28;20235;-60
2021/03/22 00:14:44;;;;;;;19.53;12.67;;;3.80;99.90;;;4.72;75.66;98155.94;5182508;28;20198;-59
2021/03/22 00:17:17;;;;;;;21.80;13.97;;;3.80;99.90;;;4.72;75.83;98167.66;5184061;28;20208;-60
2021/03/22 00:19:49;;;;;;;21.20;14.23;;;3.80;99.90;;;4.74;75.68;98161.09;5184008;28;20295;-59
2021/03/22 00:22:21;;;;;;;23.20;13.53;;;3.90;99.90;;;4.81;75.75;98162.50;5184417;28;20297;-60
2021/03/22 00:24:53;;;;;;;19.43;12.60;;;3.90;99.90;;;4.77;75.75;98155.41;5167993;28;20270;-60
2021/03/22 00:27:25;;;;;;;17.57;12.20;;;3.90;99.90;;;4.76;75.65;98158.72;5169779;28;20198;-60
2021/03/22 00:29:58;;;;;;;18.60;13.77;;;3.90;99.90;;;4.76;76.08;98146.06;5164261;28;20306;-60
2021/03/22 00:32:31;;;;;;;21.67;13.57;;;3.90;99.90;;;4.78;75.56;98152.13;5181747;28;20225;-60
2021/03/22 00:35:04;;;;;;;21.33;13.27;;;3.90;99.90;;;4.76;75.38;98158.72;5184330;28;20201;-60
2021/03/22 00:37:36;;;;;;;17.07;12.13;;;3.90;99.90;;;4.78;75.28;98153.03;5183966;28;20204;-59
2021/03/22 00:40:11;;;;;;;17.57;12.73;;;3.90;99.90;;;4.80;75.42;98154.03;5184009;28;20293;-59
2021/03/22 00:42:43;;;;;;;19.70;12.40;;;3.80;99.90;;;4.85;75.10;98150.22;5183494;28;20208;-60
2021/03/22 00:45:20;;;;;;;19.73;12.40;;;3.80;99.90;;;4.85;75.06;98152.75;5184433;28;20229;-59
2021/03/22 00:47:53;;;;;;;21.27;12.57;;;3.80;99.90;;;4.84;74.71;98148.47;5179542;28;20204;-59
2021/03/22 00:50:29;;;;;;;16.40;11.93;;;3.80;99.90;;;4.80;74.87;98155.66;5171880;28;20220;-60
2021/03/22 00:53:02;;;;;;;16.77;11.70;;;3.80;99.90;;;4.78;75.01;98154.66;5165162;28;20692;-60
2021/03/22 00:55:34;;;;;;;23.63;13.53;;;3.90;99.90;;;4.76;74.97;98146.94;5178787;28;20208;-59
2021/03/22 00:58:07;;;;;;;21.00;11.73;;;3.90;99.90;;;4.74;75.26;98150.97;5183549;28;20233;-60
2021/03/22 01:00:42;;;;;;;22.53;13.27;;;3.80;99.90;;;4.72;75.53;98147.41;5183865;28;20299;-60
2021/03/22 01:03:19;;;;;;;17.70;12.23;;;3.80;99.90;;;4.70;75.35;98149.84;5163973;28;20293;-60
2021/03/22 01:05:52;;;;;;;18.97;12.20;;;3.80;99.90;;;4.70;75.36;98157.44;5168136;28;20194;-58
2021/03/22 01:08:28;;;;;;;17.03;12.27;;;3.80;99.90;;;4.70;75.18;98148.97;5180180;28;20552;-60
2021/03/22 01:11:04;;;;;;;20.00;11.93;;;3.80;99.90;;;4.69;75.22;98154.75;5165356;28;20600;-58
2021/03/22 01:13:40;;;;;;;17.87;12.07;;;3.80;99.90;;;4.69;75.29;98142.09;5186910;28;20221;-60
2021/03/22 01:16:27;;;;;;;19.37;12.50;;;3.80;99.90;;;4.68;75.38;98143.75;5187345;28;20845;-60
2021/03/22 01:19:05;;;;;;;12.97;10.50;;;3.80;99.90;;;4.66;75.25;98149.44;5187561;28;20288;-60
2021/03/22 01:21:41;;;;;;;19.57;11.20;;;3.80;99.90;;;4.61;75.09;98150.72;5187036;28;20223;-60
2021/03/22 01:24:15;;;;;;;20.00;11.80;;;3.70;99.90;;;4.64;75.06;98153.50;5173944;28;20200;-59
2021/03/22 01:26:49;;;;;;;17.80;11.23;;;3.70;99.90;;;4.61;74.86;98148.19;5166706;28;20207;-58
2021/03/22 01:29:27;;;;;;;20.83;10.83;;;3.70;99.90;;;4.66;74.10;98139.31;5187428;28;20217;-59
2021/03/22 01:32:01;;;;;;;20.50;11.10;;;3.70;99.90;;;4.62;74.64;98142.34;5186621;28;20312;-60
2021/03/22 01:34:33;;;;;;;15.03;10.30;;;3.70;99.90;;;4.60;74.43;98129.56;5187169;28;20223;-59
2021/03/22 01:37:07;;;;;;;17.10;9.77;;;3.70;99.90;;;4.61;74.61;98133.88;5186590;28;20200;-58
2021/03/22 01:39:40;;;;;;;17.80;11.10;;;3.70;99.90;;;4.61;74.99;98133.00;5182112;28;20210;-60
2021/03/22 01:42:36;;;;;;;18.87;10.13;;;3.70;99.90;;;4.57;74.02;98130.94;5168411;28;20269;-59
2021/03/22 01:45:10;;;;;;;15.93;10.40;;;3.70;99.90;;;4.58;74.27;98131.09;5184224;28;20293;-58
2021/03/22 01:47:43;;;;;;;14.90;10.07;;;3.60;99.90;;;4.59;74.17;98131.97;5186321;28;20195;-60
2021/03/22 01:50:20;;;;;;;19.80;10.23;;;3.70;99.90;;;4.56;74.19;98129.19;5186737;28;20248;-60
2021/03/22 01:52:53;;;;;;;16.57;9.83;;;3.70;99.90;;;4.54;74.18;98125.63;5186369;28;20228;-60
2021/03/22 01:55:27;;;;;;;19.80;11.03;;;3.70;99.90;;;4.53;74.15;98123.88;5186772;28;20199;-59
2021/03/22 01:57:59;;;;;;;19.03;9.87;;;3.60;99.90;;;4.51;74.20;98119.53;5170237;28;20204;-59
2021/03/22 02:00:35;;;;;;;19.63;9.60;;;3.60;99.90;;;4.57;74.39;98121.72;5180587;28;20680;-60
2021/03/22 02:03:13;;;;;;;21.27;10.73;;;3.60;99.90;;;4.54;74.28;98120.56;5186699;28;20202;-59
2021/03/22 02:05:49;;;;;;;17.33;9.93;;;3.60;99.90;;;4.53;74.08;98116.28;5186632;28;20201;-59
2021/03/22 02:08:26;;;;;;;16.27;9.93;;;3.60;99.90;;;4.50;74.07;98115.25;5181459;28;20289;-59
2021/03/22 02:10:59;;;;;;;19.03;9.77;;;3.60;99.90;;;4.49;73.98;98117.63;5186911;28;20233;-60
2021/03/22 02:13:36;;;;;;;23.37;10.23;;;3.60;99.90;;;4.46;73.92;98108.19;5185792;28;20223;-60
2021/03/22 02:16:15;;;;;;;15.20;8.73;;;3.50;99.90;;;4.45;73.92;98111.44;5186486;28;20196;-60
2021/03/22 02:19:02;;;;;;;18.40;9.87;;;3.50;99.90;;;4.43;73.92;98119.66;5185834;28;20238;-60
2021/03/22 02:22:14;;;;;;;16.43;8.13;;;3.50;99.90;;;4.41;73.68;98122.06;5185621;28;20219;-60
2021/03/22 02:25:16;;;;;;;19.73;8.60;;;3.50;99.90;;;4.37;73.20;98122.56;5185880;28;20720;-60
2021/03/22 02:28:26;;;;;;;19.37;9.00;;;3.50;99.90;;;4.38;73.15;98121.81;5185311;28;20191;-60
2021/03/22 02:31:54;;;;;;;17.87;8.03;;;3.50;99.90;;;4.34;73.03;98122.28;5182916;28;20600;-60
2021/03/22 02:34:52;;;;;;;17.37;8.53;;;3.50;99.90;;;4.31;73.01;98124.56;5150062;28;20604;-60
2021/03/22 02:37:37;;;;;;;14.53;7.60;;;3.40;99.90;;;4.32;72.61;98128.91;5181284;28;20212;-60
2021/03/22 02:40:22;;;;;;;20.40;8.70;;;3.40;99.90;;;4.25;72.35;98127.47;5168365;28;20682;-60
2021/03/22 02:42:54;;;;;;;17.47;8.37;;;3.40;99.90;;;4.24;72.29;98129.88;5184519;28;20199;-60
2021/03/22 02:45:30;;;;;;;15.70;8.23;;;3.40;99.90;;;4.22;72.45;98132.25;5173268;28;20196;-60
2021/03/22 02:48:05;;;;;;;15.73;7.93;;;3.40;99.90;;;4.22;72.42;98128.84;5181928;28;20215;-60
2021/03/22 02:50:41;;;;;;;20.17;8.90;;;3.30;99.90;;;4.21;72.56;98145.69;5184710;28;20606;-60
2021/03/22 02:53:46;;;;;;;15.40;8.60;;;3.30;99.90;;;4.23;72.28;98143.25;5185619;28;20226;-60
2021/03/22 02:56:33;;;;;;;15.37;8.73;;;3.30;99.90;;;4.22;72.46;98146.56;5178658;28;20808;-60
2021/03/22 02:59:15;;;;;;;21.90;9.70;;;3.30;99.90;;;4.18;72.52;98139.47;5178383;28;20205;-60
2021/03/22 03:01:52;;;;;;;20.57;8.50;;;3.30;99.90;;;4.20;72.21;98143.00;5185309;28;20221;-60
2021/03/22 03:04:24;;;;;;;14.77;8.77;;;3.30;99.90;;;4.22;72.43;98141.50;5172050;28;20266;-60
2021/03/22 03:07:01;;;;;;;18.70;9.73;;;3.30;99.90;;;4.22;72.62;98151.63;5177976;28;20202;-60
2021/03/22 03:09:37;;;;;;;15.77;8.20;;;3.30;99.90;;;4.20;72.67;98145.53;5185722;28;20214;-59
2021/03/22 03:12:12;;;;;;;20.50;8.83;;;3.30;99.90;;;4.21;72.88;98149.84;5183570;28;20305;-60
2021/03/22 03:14:48;;;;;;;12.73;7.63;;;3.30;99.90;;;4.23;73.03;98149.19;5185196;28;20573;-60
2021/03/22 03:17:21;;;;;;;17.20;7.70;;;3.30;99.90;;;4.23;72.74;98154.25;5184790;28;20203;-60
2021/03/22 03:19:55;;;;;;;12.73;7.77;;;3.30;99.90;;;4.21;72.84;98160.84;5184136;28;20203;-60
2021/03/22 03:22:28;;;;;;;16.20;8.37;;;3.40;99.90;;;4.21;72.67;98153.25;5185183;28;20301;-60
2021/03/22 03:25:00;;;;;;;16.73;8.27;;;3.30;99.90;;;4.20;72.56;98159.06;5184786;28;20655;-60
2021/03/22 03:27:32;;;;;;;21.10;8.60;;;3.30;99.90;;;4.15;72.65;98169.53;5180621;28;20578;-60
2021/03/22 03:30:07;;;;;;;15.83;7.70;;;3.30;99.90;;;4.16;72.98;98177.28;5185090;28;20198;-60
2021/03/22 03:32:39;;;;;;;16.57;7.77;;;3.30;99.90;;;4.18;72.82;98185.00;5185115;28;20191;-60
2021/03/22 03:35:14;;;;;;;14.97;8.10;;;3.30;99.90;;;4.23;72.79;98178.69;5183490;28;20224;-60
2021/03/22 03:37:47;;;;;;;16.13;8.10;;;3.30;99.90;;;4.23;72.69;98181.22;5184515;28;20203;-60
2021/03/22 03:40:23;;;;;;;18.63;9.67;;;3.30;99.90;;;4.23;72.67;98181.22;5184466;28;20193;-60
2021/03/22 03:42:56;;;;;;;18.13;8.20;;;3.30;99.90;;;4.20;73.01;98175.88;5169291;28;20201;-60
2021/03/22 03:45:34;;;;;;;16.77;8.80;;;3.30;99.90;;;4.20;73.01;98179.28;5170129;28;20282;-60
2021/03/22 03:48:18;;;;;;;19.87;8.63;;;3.30;99.90;;;4.12;72.96;98179.38;5183936;28;20202;-59
2021/03/22 03:50:52;;;;;;;22.90;9.63;;;3.20;99.90;;;4.16;73.10;98181.44;5198843;23;20233;-57
2021/03/22 03:53:26;;;;;;;16.17;8.27;;;3.20;99.90;;;4.13;73.24;98176.13;5194292;28;20232;-54
2021/03/22 03:56:00;;;;;;;16.57;8.00;;;3.20;99.90;;;4.19;73.36;98171.59;5184208;28;20663;-58
2021/03/22 03:58:32;;;;;;;19.10;7.87;;;3.20;99.90;;;4.16;73.44;98176.38;5184490;28;20205;-57
2021/03/22 04:01:05;;;;;;;17.77;8.53;;;3.30;99.90;;;4.15;73.37;98179.66;5183810;28;20211;-56
2021/03/22 04:03:39;;;;;;;12.97;7.40;;;3.20;99.90;;;4.14;73.00;98175.34;5168556;28;20240;-55
2021/03/22 04:06:14;;;;;;;14.63;8.23;;;3.20;99.90;;;4.18;73.23;98179.94;5164858;28;20622;-56
2021/03/22 04:08:52;;;;;;;18.87;8.63;;;3.30;99.90;;;4.17;73.46;98179.03;5164508;28;20194;-58
2021/03/22 04:11:28;;;;;;;16.63;7.83;;;3.30;99.90;;;4.22;73.33;98179.44;5167876;28;20216;-58
2021/03/22 04:14:01;;;;;;;16.70;8.47;;;3.30;99.90;;;4.25;73.39;98177.19;5170995;28;20229;-55
2021/03/22 04:16:34;;;;;;;13.97;8.63;;;3.30;99.90;;;4.25;73.40;98182.22;5163659;28;20326;-57
2021/03/22 04:19:06;;;;;;;12.33;7.57;;;3.20;99.90;;;4.25;73.62;98187.28;5164095;28;20292;-55
2021/03/22 04:21:38;;;;;;;16.03;8.83;;;3.20;99.90;;;4.22;74.09;98190.44;5164420;28;20223;-55
2021/03/22 04:24:12;;;;;;;18.93;9.03;;;3.20;99.90;;;4.17;74.26;98179.03;5164516;28;20284;-56
2021/03/22 04:26:44;;;;;;;18.87;8.63;;;3.20;99.90;;;4.16;74.36;98181.44;5164141;28;20192;-58
2021/03/22 04:29:17;;;;;;;20.03;9.07;;;3.20;99.90;;;4.18;74.52;98190.06;5164119;28;20205;-58
2021/03/22 04:31:49;;;;;;;16.00;8.80;;;3.20;99.90;;;4.18;74.78;98201.06;5163830;28;20726;-56
2021/03/22 04:34:21;;;;;;;18.67;9.17;;;3.20;99.90;;;4.17;74.63;98193.31;5163893;28;20224;-56
2021/03/22 04:36:53;;;;;;;15.33;8.93;;;3.20;99.90;;;4.16;74.89;98194.09;5164866;28;20643;-53
2021/03/22 04:39:26;;;;;;;17.93;8.77;;;3.20;99.90;;;4.12;74.77;98189.50;5163887;28;20210;-57
2021/03/22 04:41:58;;;;;;;17.67;9.43;;;3.10;99.90;;;4.12;74.93;98182.84;5164095;28;20594;-58
2021/03/22 04:44:30;;;;;;;17.87;8.43;;;3.10;99.90;;;4.08;74.67;98188.34;5163603;28;20287;-54
2021/03/22 04:47:02;;;;;;;17.60;9.03;;;3.10;99.90;;;4.01;74.86;98197.06;5164426;28;20206;-56
2021/03/22 04:49:34;;;;;;;15.93;8.87;;;3.10;99.90;;;4.01;75.25;98192.00;5170682;28;20199;-56
2021/03/22 04:52:08;;;;;;;14.73;7.80;;;3.10;99.90;;;4.01;75.42;98188.59;5180846;28;20233;-54
2021/03/22 04:54:41;;;;;;;16.43;8.37;;;3.10;99.90;;;4.00;75.66;98185.16;5174071;28;20717;-55
2021/03/22 04:57:24;;;;;;;12.90;7.80;;;3.10;99.90;;;3.98;75.52;98194.28;5167492;28;20199;-56
2021/03/22 04:59:57;;;;;;;14.63;8.47;;;3.10;99.90;;;4.01;75.29;98197.06;5167171;28;20255;-53
2021/03/22 05:02:29;;;;;;;11.83;7.13;;;3.10;99.90;;;3.99;75.22;98193.50;5166332;28;20328;-54
2021/03/22 05:05:06;;;;;;;20.30;8.67;;;3.10;99.90;;;3.99;74.82;98193.50;5166935;28;20246;-55
2021/03/22 05:07:38;;;;;;;13.43;8.07;;;3.10;99.90;;;3.99;75.04;98190.09;5167738;28;20202;-55
2021/03/22 05:10:18;;;;;;;20.87;7.83;;;3.10;99.90;;;4.02;74.34;98197.94;5167379;28;20195;-56
2021/03/22 05:12:50;;;;;;;18.20;8.77;;;3.00;99.90;;;3.98;74.44;98196.78;5161945;28;20302;-57
2021/03/22 05:15:23;;;;;;;18.00;8.30;;;3.00;99.90;;;3.92;74.90;98211.44;5166940;28;20192;-55
2021/03/22 05:17:56;;;;;;;16.27;8.30;;;3.00;99.90;;;3.89;74.78;98206.06;5166964;28;20269;-53
2021/03/22 05:20:32;;;;;;;14.97;7.80;;;3.00;99.90;;;3.84;74.56;98203.16;5166882;28;20191;-55
2021/03/22 05:23:07;;;;;;;13.83;7.50;;;2.90;99.90;;;3.88;74.97;98219.47;5176833;28;20602;-54
2021/03/22 05:25:41;;;;;;;22.27;8.50;;;3.00;99.90;;;3.88;74.55;98214.44;5166811;28;20202;-54
2021/03/22 05:28:14;;;;;;;21.60;8.00;;;3.00;99.90;;;3.88;74.18;98214.44;5168235;28;20198;-59
2021/03/22 05:30:46;;;;;;;15.17;7.13;;;2.90;99.90;;;3.87;74.15;98215.19;5166113;28;20195;-58
2021/03/22 05:33:21;;;;;;;15.53;6.97;;;3.00;99.90;;;3.87;74.05;98212.66;5166037;28;20247;-57
2021/03/22 05:35:57;;;;;;;19.27;7.57;;;3.00;99.90;;;3.89;73.67;98225.41;5166191;28;20202;-56
2021/03/22 05:38:30;;;;;;;16.30;7.60;;;3.00;99.90;;;3.91;73.31;98218.88;5168825;28;20214;-58
2021/03/22 05:41:08;;;;;;;13.40;7.27;;;3.00;99.90;;;3.94;73.38;98220.03;5168142;28;20215;-56
2021/03/22 05:43:53;;;;;;;13.40;6.60;;;3.00;99.90;;;3.99;73.48;98222.97;5166865;28;20209;-58
2021/03/22 05:46:38;;;;;;;16.87;7.77;;;3.10;99.90;;;4.01;73.53;98221.47;5165937;28;20292;-58
2021/03/22 05:49:39;;;;;;;13.93;7.17;;;3.10;99.90;;;4.05;73.23;98224.38;5166314;28;20207;-56
2021/03/22 05:52:22;;;;;;;16.40;7.23;;;3.10;99.90;;;4.13;72.98;98225.06;5165337;28;20233;-56
2021/03/22 05:55:14;;;;;;;15.70;6.67;;;3.20;99.90;;;4.18;72.57;98225.47;5162859;28;20224;-57
2021/03/22 05:58:01;;;;;;;16.43;7.10;;;3.20;99.90;;;4.19;72.27;98230.66;5183312;28;20911;-57
2021/03/22 06:00:47;;;;;;;15.43;7.20;;;3.20;99.90;;;4.16;72.24;98232.03;5174853;28;20199;-58
2021/03/22 06:03:30;;;;;;;15.87;6.80;;;3.30;99.90;;;4.20;72.31;98232.41;5166622;28;20222;-58
2021/03/22 06:06:12;;;;;;;20.67;7.70;;;3.30;99.90;;;4.20;70.93;98234.06;5165723;28;20626;-59
2021/03/22 06:08:53;;;;;;;11.80;6.73;;;3.30;99.90;;;4.26;71.14;98234.59;5164006;28;20211;-58
2021/03/22 06:11:49;;;;;;;11.53;5.97;;;3.30;99.90;;;4.38;70.37;98233.16;5166778;28;20240;-58
2021/03/22 06:14:32;;;;;;;12.57;6.73;;;3.40;99.90;;;4.36;70.32;98227.06;5165607;28;20216;-58
2021/03/22 06:17:13;;;;;;;12.63;6.50;;;3.40;99.90;;;4.42;70.06;98237.72;5165195;28;20295;-56
2021/03/22 06:19:54;;;;;;;13.73;6.23;;;3.40;99.90;;;4.48;70.19;98228.13;5146118;28;20207;-58
2021/03/22 06:22:30;;;;;;;14.13;6.30;;;3.50;99.90;;;4.56;69.07;98233.84;5161882;28;20311;-57
2021/03/22 06:25:16;;;;;;;12.57;6.13;;;3.50;99.90;;;4.61;68.91;98239.31;5166931;28;20210;-56
2021/03/22 06:27:52;;;;;;;14.47;5.97;;;3.60;99.90;;;4.64;68.50;98242.09;5165158;28;20291;-57
2021/03/22 06:30:26;;;;;;;12.40;6.00;;;3.60;99.90;;;4.64;68.40;98257.31;5168384;28;20655;-54
2021/03/22 06:33:01;;;;;;;13.27;6.97;;;3.60;99.90;;;4.73;68.09;98242.88;5185870;28;20220;-59
2021/03/22 06:35:36;;;;;;;14.60;6.00;;;3.60;99.90;;;4.71;67.94;98255.41;5165997;28;20226;-57
2021/03/22 06:38:09;;;;;;;13.93;5.87;;;3.70;99.90;;;4.73;68.39;98251.38;5165782;28;20284;-54
2021/03/22 06:40:41;;;;;;;13.63;6.37;;;3.70;99.90;;;4.95;66.99;98254.09;5166177;28;20297;-59
2021/03/22 06:43:17;;;;;;;13.40;6.10;;;3.80;99.90;;;4.97;66.28;98257.63;5165497;28;20203;-59
2021/03/22 06:45:54;;;;;;;13.97;6.23;;;3.80;99.90;;;4.90;66.33;98269.66;5164242;28;20206;-55
2021/03/22 06:48:29;;;;;;;13.77;6.60;;;3.80;99.90;;;4.88;66.69;98264.44;5164926;28;20202;-59
2021/03/22 06:51:20;;;;;;;12.10;5.40;;;3.80;99.90;;;4.94;66.20;98267.50;5175876;28;20218;-59
2021/03/22 06:53:56;;;;;;;11.10;4.80;;;3.80;99.90;;;4.91;65.96;98274.84;5163907;28;20666;-59
2021/03/22 06:56:30;;;;;;;11.53;5.37;;;3.80;99.90;;;4.93;65.44;98275.88;5169710;28;20207;-56
2021/03/22 06:59:12;;;;;;;12.80;6.03;;;3.80;99.90;;;5.00;65.63;98277.25;5169211;28;20194;-58
2021/03/22 07:01:48;;;;;;;12.90;5.50;;;3.90;99.90;;;4.97;65.94;98275.34;5164581;28;20306;-58
2021/03/22 07:04:27;;;;;;;11.47;5.53;;;3.90;99.90;;;4.99;66.23;98279.69;5164465;28;20299;-59
2021/03/22 07:07:18;;;;;;;8.40;4.70;;;4.00;99.90;;;5.01;65.24;98285.75;5162067;28;20203;-55
2021/03/22 07:09:56;;;;;;;10.63;4.77;;;4.00;99.90;;;5.06;65.06;98284.50;5142937;28;20295;-59
2021/03/22 07:12:35;;;;;;;13.57;6.60;;;4.10;99.90;;;5.13;65.21;98279.22;5152179;28;20223;-59
2021/03/22 07:15:23;;;;;;;10.83;5.77;;;4.10;99.90;;;5.22;64.48;98279.97;5163619;28;20658;-58
2021/03/22 07:18:12;;;;;;;12.80;6.70;;;4.00;99.90;;;5.17;65.44;98278.69;5162698;28;20195;-59
2021/03/22 07:21:13;;;;;;;11.37;5.20;;;4.10;99.90;;;5.22;64.51;98285.03;5168426;28;20234;-58
2021/03/22 07:24:05;;;;;;;11.53;5.70;;;4.00;99.90;;;5.15;64.44;98288.72;5181369;28;20460;-59
2021/03/22 07:27:01;;;;;;;10.57;4.97;;;4.00;99.90;;;5.10;64.37;98291.63;5162803;28;20207;-58
2021/03/22 07:30:19;;;;;;;8.93;4.70;;;4.10;99.90;;;5.15;64.32;98287.81;5164416;28;20312;-57
2021/03/22 07:33:20;;;;;;;9.73;4.53;;;4.20;99.90;;;5.22;63.74;98296.84;5161496;28;20215;-58
2021/03/22 07:36:31;;;;;;;11.77;4.90;;;4.10;99.90;;;5.27;63.80;98293.94;5162993;28;20220;-58
2021/03/22 07:39:23;;;;;;;10.60;4.80;;;4.10;99.90;;;5.30;63.82;98309.38;5143127;28;20221;-57
2021/03/22 07:42:23;;;;;;;7.53;4.53;;;4.20;99.90;;;5.28;63.87;98305.81;5142876;28;20230;-55
2021/03/22 07:45:17;;;;;;;9.90;5.00;;;4.20;99.90;;;5.31;63.61;98306.09;5162952;28;20206;-55
2021/03/22 07:48:27;;;;;;;7.80;4.90;;;4.20;99.90;;;5.34;63.18;98306.34;5162534;28;20203;-57
2021/03/22 07:51:46;;;;;;;7.10;3.83;;;4.20;99.90;;;5.49;62.67;98316.88;5154510;28;20311;-58
2021/03/22 07:54:37;;;;;;;7.80;4.63;;;4.20;99.90;;;5.53;62.11;98315.50;5162225;28;20226;-56
2021/03/22 07:57:26;;;;;;;10.63;4.57;;;4.30;99.90;;;5.50;62.30;98312.72;5163047;28;20290;-58
2021/03/22 08:00:10;;;;;;;9.27;4.30;;;4.30;99.90;;;5.48;62.03;98314.22;5161762;28;20221;-58
2021/03/22 08:03:13;;;;;;;9.40;4.67;;;4.30;99.90;;;5.42;62.79;98309.53;5161586;28;20219;-58
2021/03/22 08:06:26;;;;;;;8.33;4.43;;;4.30;99.90;;;5.62;61.83;98313.72;5157241;28;20207;-57
2021/03/22 08:09:34;;;;;;;7.47;4.27;;;4.40;99.90;;;5.65;61.95;98313.97;5161422;28;20293;-58
2021/03/22 08:12:17;;;;;;;8.97;4.57;;;4.40;99.90;;;5.60;62.39;98310.19;5162535;28;20330;-56
2021/03/22 08:14:57;;;;;;;12.17;4.70;;;4.50;99.90;;;5.70;61.58;98312.72;5181886;28;20262;-59
2021/03/22 08:17:54;;;;;;;7.67;4.50;;;4.60;99.90;;;5.68;61.77;98323.50;5162697;28;20297;-58
2021/03/22 08:20:31;;;;;;;8.80;4.83;;;4.50;99.90;;;5.59;61.77;98327.03;5162278;28;20195;-57
2021/03/22 08:23:17;;;;;;;10.00;4.60;;;4.60;99.90;;;5.67;62.80;98335.28;5166296;28;20223;-57
2021/03/22 08:25:52;;;;;;;9.43;4.43;;;4.60;99.90;;;5.77;62.12;98335.28;5165955;28;20207;-58
2021/03/22 08:28:31;;;;;;;8.87;4.30;;;4.60;99.90;;;5.76;62.40;98332.63;5167683;28;20233;-57
2021/03/22 08:31:12;;;;;;;12.23;5.00;;;4.70;99.90;;;5.81;62.38;98347.47;5171057;28;20233;-59
2021/03/22 08:33:49;;;;;;;12.13;4.67;;;4.80;99.90;;;5.83;61.79;98343.41;5169394;28;20269;-57
2021/03/22 08:36:41;;;;;;;12.53;4.83;;;4.80;99.90;;;5.92;62.19;98350.00;5168363;28;20206;-55
2021/03/22 08:39:24;;;;;;;11.57;4.60;;;4.80;99.90;;;5.90;61.46;98354.06;5167821;28;20555;-58
2021/03/22 08:42:07;;;;;;;10.10;4.97;;;4.70;99.90;;;5.93;61.51;98351.78;5167952;28;20227;-60
2021/03/22 08:44:42;;;;;;;9.53;4.47;;;4.80;99.90;;;6.02;61.45;98357.66;5164137;28;20671;-56
2021/03/22 08:47:40;;;;;;;8.63;4.43;;;5.00;99.90;;;6.12;60.91;98367.78;5188128;28;20670;-58
2021/03/22 08:50:16;;;;;;;14.03;5.27;;;4.90;99.90;;;6.14;60.53;98365.38;5169999;28;20581;-57
2021/03/22 08:52:57;;;;;;;11.67;4.73;;;5.00;99.90;;;6.17;61.16;98370.72;5166839;28;20240;-57
2021/03/22 08:55:46;;;;;;;8.53;3.97;;;5.10;99.90;;;6.21;60.16;98368.56;5167892;28;20230;-59
2021/03/22 08:58:25;;;;;;;8.57;4.20;;;5.10;99.90;;;6.06;61.24;98373.25;5162458;28;20199;-57
2021/03/22 09:01:23;;;;;;;12.27;4.93;;;5.10;99.90;;;6.22;60.94;98372.88;5173503;28;20231;-59
2021/03/22 09:04:10;;;;;;;9.83;5.20;;;5.00;99.90;;;6.21;61.36;98377.78;5167695;28;20203;-59
2021/03/22 09:07:07;;;;;;;8.77;4.43;;;5.10;99.90;;;6.11;61.38;98378.69;5167367;28;20200;-59
2021/03/22 09:09:42;;;;;;;6.40;4.03;;;5.10;99.90;;;6.09;61.49;98382.75;5147679;28;20208;-59
2021/03/22 09:12:33;;;;;;;8.50;4.13;;;5.10;99.90;;;6.09;61.02;98383.66;5167556;28;20341;-59
2021/03/22 09:15:16;;;;;;;6.07;3.83;;;5.10;99.90;;;6.16;61.06;98391.78;5187875;28;20698;-58
2021/03/22 09:18:15;;;;;;;7.77;4.03;;;5.10;99.90;;;6.27;61.33;98391.03;5184371;28;20652;-57
2021/03/22 09:21:21;;;;;;;9.37;4.10;;;5.20;99.90;;;6.27;62.07;98391.03;5167485;28;20210;-58
2021/03/22 09:23:53;;;;;;;9.73;4.33;;;5.20;99.90;;;6.34;61.50;98389.88;5166646;28;20199;-55
2021/03/22 09:26:57;;;;;;;9.17;4.47;;;5.30;99.90;;;6.49;61.67;98386.91;5171671;28;20199;-58
2021/03/22 09:29:38;;;;;;;13.47;4.50;;;5.40;99.90;;;6.60;61.50;98385.25;5167921;28;20219;-56
2021/03/22 09:32:47;;;;;;;11.60;4.50;;;5.50;99.90;;;6.88;61.36;98387.47;5165283;28;20229;-59
2021/03/22 09:36:10;;;;;;;11.63;4.97;;;5.50;99.90;;;7.23;59.93;98391.13;5163995;28;20219;-59
2021/03/22 09:38:47;;;;;;;9.77;4.27;;;5.80;99.90;;;7.21;59.85;98387.59;5157697;28;20282;-58
2021/03/22 09:41:58;;;;;;;11.83;4.60;;;5.80;99.90;;;7.56;58.66;98376.72;5165598;28;20250;-58
2021/03/22 09:44:35;;;;;;;11.33;4.30;;;6.20;99.90;;;7.62;58.28;98374.66;5166931;28;20187;-58
2021/03/22 09:47:21;;;;;;;8.57;4.13;;;6.20;99.90;;;7.80;56.95;98369.19;5166285;28;20199;-58
2021/03/22 09:50:15;;;;;;;7.33;3.23;;;6.40;99.90;;;7.79;56.04;98375.94;5166891;28;20591;-59
2021/03/22 09:53:17;;;;;;;6.27;3.27;;;6.40;99.90;;;7.78;55.94;98378.34;5202729;22;20257;-60
2021/03/22 09:56:02;;;;;;;5.73;3.47;;;6.50;99.90;;;7.60;56.15;98368.53;5191258;28;20228;-58
2021/03/22 09:58:38;;;;;;;6.67;3.97;;;6.40;99.90;;;7.56;55.57;98374.19;5185065;28;20285;-60
2021/03/22 10:01:41;;;;;;;6.20;4.20;;;6.20;99.90;;;7.44;56.25;98384.28;5186334;28;20208;-57
2021/03/22 10:04:36;;;;;;;9.67;3.90;;;6.20;99.90;;;7.32;56.53;98390.06;5146161;28;20199;-64
2021/03/22 10:07:21;;;;;;;7.43;3.97;;;6.10;99.90;;;7.29;56.75;98387.28;5145966;28;20256;-64
2021/03/22 10:10:00;;;;;;;8.67;4.03;;;6.10;99.90;;;7.35;56.27;98395.38;5165579;28;20291;-64
2021/03/22 10:12:35;;;;;;;6.90;3.67;;;6.10;99.90;;;7.27;57.99;98391.34;5165833;28;20231;-64
2021/03/22 10:15:28;;;;;;;6.37;3.70;;;6.10;99.90;;;7.23;58.16;98398.75;5166609;28;20695;-60
2021/03/22 10:18:18;;;;;;;5.10;3.13;;;6.10;99.90;;;7.37;57.91;98392.19;5157457;28;20207;-59
2021/03/22 10:21:02;;;;;;;9.50;4.33;;;6.10;99.90;;;7.40;58.70;98378.84;5146160;28;20208;-58
2021/03/22 10:23:39;;;;;;;10.50;4.50;;;6.00;99.90;;;7.59;59.24;98386.25;5161068;28;20199;-59
2021/03/22 10:26:18;;;;;;;9.23;4.30;;;6.00;99.90;;;7.61;58.43;98390.69;5165961;28;20199;-60
2021/03/22 10:28:50;;;;;;;8.67;4.47;;;6.20;99.90;;;7.57;58.71;98392.88;5162066;28;20199;-60
2021/03/22 10:31:25;;;;;;;6.53;3.27;;;6.40;99.90;;;7.65;58.29;98386.72;5165726;28;20219;-59
2021/03/22 10:34:02;;;;;;;5.27;3.53;;;6.50;99.90;;;7.67;56.03;98386.06;5148324;28;20552;-60
2021/03/22 10:36:36;;;;;;;6.13;3.40;;;6.50;99.90;;;7.78;55.44;98389.41;5150912;28;20226;-57
2021/03/22 10:39:26;;;;;;;5.07;3.10;;;6.60;99.90;;;7.76;56.04;98385.00;5165406;28;20733;-59
2021/03/22 10:41:58;;;;;;;6.87;3.50;;;6.70;99.90;;;7.75;56.38;98393.38;5165309;28;20311;-59
2021/03/22 10:44:37;;;;;;;5.13;3.00;;;6.70;99.90;;;7.72;56.55;98388.94;5165334;28;20197;-60
2021/03/22 10:47:13;;;;;;;4.70;2.80;;;6.60;99.90;;;8.00;55.85;98385.97;5145244;28;20207;-59
2021/03/22 10:49:47;;;;;;;6.70;3.00;;;6.60;99.90;;;8.13;55.47;98384.44;5154175;28;20200;-59
2021/03/22 10:52:23;;;;;;;4.57;3.07;;;6.70;99.90;;;8.29;53.79;98385.59;5160754;28;20229;-59
2021/03/22 10:54:57;;;;;;;6.07;3.17;;;6.60;99.90;;;8.16;53.84;98382.91;5163048;28;20223;-60
2021/03/22 10:57:34;;;;;;;3.37;2.80;;;6.70;99.90;;;8.16;54.78;98386.34;5163609;28;20294;-61
2021/03/22 11:00:25;;;;;;;4.30;2.70;;;6.80;99.90;;;8.18;54.57;98386.44;5168262;28;20673;-59
2021/03/22 11:03:01;;;;;;;3.10;2.70;;;6.90;99.90;;;7.99;53.62;98379.09;5157828;28;20230;-59
2021/03/22 11:05:41;;;;;;;4.23;2.77;;;6.80;99.90;;;7.96;54.19;98379.75;5163685;28;20195;-60
2021/03/22 11:08:26;;;;;;;4.80;3.00;;;6.60;99.90;;;7.92;54.91;98385.38;5172960;28;20773;-60
2021/03/22 11:11:03;;;;;;;4.13;3.23;;;6.60;99.90;;;7.93;55.56;98387.16;5156545;28;20196;-59
2021/03/22 11:13:39;;;;;;;4.57;3.10;;;6.70;99.90;;;7.77;55.18;98376.59;5163203;28;20231;-60
2021/03/22 11:16:21;;;;;;;4.63;2.93;;;6.60;99.90;;;7.75;54.72;98385.75;5162649;28;20219;-60
2021/03/22 11:18:54;;;;;;;3.70;2.90;;;6.50;99.90;;;7.76;54.66;98390.09;5158320;28;20200;-59
2021/03/22 11:21:28;;;;;;;3.13;2.83;;;6.60;99.90;;;7.74;54.46;98396.72;5156584;28;20219;-60
2021/03/22 11:24:00;;;;;;;3.33;2.60;;;6.60;99.90;;;7.55;55.42;98399.47;5161294;28;20608;-60
2021/03/22 11:26:32;;;;;;;3.23;2.90;;;6.50;99.90;;;7.59;55.52;98397.31;5163419;28;20625;-60